createdAt,value
2019-04-20T00:00:14.996Z,16.7
2019-04-20T00:03:15.840Z,16.7
2019-04-20T00:06:15.341Z,16.7
2019-04-20T00:09:19.403Z,16.8
2019-04-20T00:12:20.309Z,16.7
2019-04-20T00:15:15.598Z,16.7
2019-04-20T00:18:16.866Z,16.7
2019-04-20T00:21:16.440Z,16.7
2019-04-20T00:24:20.223Z,16.7
2019-04-20T00:27:37.106Z,16.7
2019-04-20T00:30:31.564Z,16.7
2019-04-20T00:33:34.966Z,16.7
2019-04-20T00:36:16.108Z,16.7
2019-04-20T00:39:16.824Z,16.7
2019-04-20T00:42:16.787Z,16.7
2019-04-20T00:45:19.091Z,16.7
2019-04-20T00:48:22.442Z,16.7
2019-04-20T00:51:32.689Z,16.7
2019-04-20T00:54:15.975Z,16.7
2019-04-20T00:57:24.466Z,16.7
2019-04-20T01:00:31.055Z,16.7
2019-04-20T01:03:31.392Z,16.6
2019-04-20T01:06:26.988Z,16.6
2019-04-20T01:09:16.042Z,16.6
2019-04-20T01:12:20.822Z,16.6
2019-04-20T01:15:25.596Z,16.6
2019-04-20T01:18:15.819Z,16.6
2019-04-20T01:21:20.272Z,16.5
2019-04-20T01:24:21.764Z,16.5
2019-04-20T01:27:28.336Z,16.5
2019-04-20T01:30:25.152Z,16.4
2019-04-20T01:33:26.035Z,16.5
2019-04-20T01:36:36.792Z,16.4
2019-04-20T01:39:25.288Z,16.4
2019-04-20T01:42:15.169Z,16.4
2019-04-20T01:45:23.566Z,16.4
2019-04-20T01:48:20.546Z,16.4
2019-04-20T01:51:22.098Z,16.4
2019-04-20T01:54:29.679Z,16.4
2019-04-20T01:57:21.901Z,16.4
2019-04-20T02:00:23.390Z,16.4
2019-04-20T02:03:17.015Z,16.4
2019-04-20T02:06:18.816Z,16.3
2019-04-20T02:09:20.478Z,16.3
2019-04-20T02:12:19.107Z,16.3
2019-04-20T02:15:24.490Z,16.3
2019-04-20T02:18:28.185Z,16.3
2019-04-20T02:21:31.689Z,16.3
2019-04-20T02:24:16.424Z,16.3
2019-04-20T02:27:19.722Z,16.3
2019-04-20T02:33:54.327Z,16.3
2019-04-20T02:39:51.208Z,16.2
2019-04-20T02:42:44.576Z,16.2
2019-04-20T02:45:47.270Z,16.2
2019-04-20T02:48:53.580Z,16.2
2019-04-20T02:51:46.825Z,16.2
2019-04-20T02:54:46.448Z,16.2
2019-04-20T02:57:44.145Z,16.2
2019-04-20T03:00:40.855Z,16.2
2019-04-20T03:03:25.247Z,16.2
2019-04-20T03:06:26.370Z,16.2
2019-04-20T03:09:36.407Z,16.2
2019-04-20T03:12:38.578Z,16.2
2019-04-20T03:15:38.227Z,16.2
2019-04-20T03:18:35.102Z,16.2
2019-04-20T03:21:33.331Z,16.1
2019-04-20T03:24:37.605Z,16.1
2019-04-20T03:27:31.108Z,16.1
2019-04-20T03:31:16.305Z,16.1
2019-04-20T03:36:41.488Z,16.1
2019-04-20T03:39:33.468Z,16.0
2019-04-20T03:42:16.005Z,16.0
2019-04-20T03:45:18.401Z,16.0
2019-04-20T03:48:32.263Z,16.0
2019-04-20T03:54:24.736Z,15.9
2019-04-20T03:57:31.123Z,15.9
2019-04-20T04:00:31.951Z,15.8
2019-04-20T04:03:41.020Z,15.8
2019-04-20T04:06:24.222Z,15.8
2019-04-20T04:09:25.786Z,15.7
2019-04-20T04:12:25.172Z,15.7
2019-04-20T04:15:16.756Z,15.6
2019-04-20T04:18:21.885Z,15.5
2019-04-20T04:21:21.766Z,15.5
2019-04-20T04:24:27.223Z,15.4
2019-04-20T04:27:37.393Z,15.3
2019-04-20T04:30:31.056Z,15.3
2019-04-20T04:36:30.717Z,15.2
2019-04-20T04:39:36.511Z,15.2
2019-04-20T04:42:28.123Z,15.2
2019-04-20T04:45:17.573Z,15.2
2019-04-20T04:48:23.933Z,15.1
2019-04-20T04:51:21.262Z,15.1
2019-04-20T04:54:26.761Z,15.2
2019-04-20T04:57:15.794Z,15.3
2019-04-20T05:00:20.575Z,15.5
2019-04-20T05:03:35.857Z,15.9
2019-04-20T05:06:32.075Z,16.4
2019-04-20T05:09:17.689Z,17.1
2019-04-20T05:12:18.759Z,17.9
2019-04-20T05:15:29.727Z,18.7
2019-04-20T05:21:29.834Z,20.4
2019-04-20T05:24:25.559Z,21.2
2019-04-20T05:27:34.816Z,22.0
2019-04-20T05:30:16.023Z,22.7
2019-04-20T05:33:25.473Z,23.4
2019-04-20T05:36:28.132Z,24.1
2019-04-20T05:39:38.443Z,24.8
2019-04-20T05:42:35.884Z,25.6
2019-04-20T05:45:32.336Z,26.3
2019-04-20T05:48:25.882Z,26.9
2019-04-20T05:51:38.297Z,27.6
2019-04-20T05:54:39.051Z,28.2
2019-04-20T05:57:38.253Z,28.8
2019-04-20T06:00:40.619Z,29.3
2019-04-20T06:06:37.953Z,30.2
2019-04-20T06:09:33.869Z,30.4
2019-04-20T06:12:36.145Z,30.6
2019-04-20T06:15:40.753Z,30.8
2019-04-20T06:18:32.798Z,31.0
2019-04-20T06:21:37.973Z,31.2
2019-04-20T06:30:30.870Z,32.8
2019-04-20T06:33:52.045Z,32.3
2019-04-20T06:36:41.388Z,31.8
2019-04-20T06:39:40.724Z,31.4
2019-04-20T06:42:35.770Z,31.4
2019-04-20T06:45:45.816Z,31.8
2019-04-20T06:48:44.495Z,32.6
2019-04-20T06:51:40.348Z,33.3
2019-04-20T06:54:36.139Z,34.4
2019-04-20T06:57:31.037Z,34.8
2019-04-20T07:00:35.120Z,35.3
2019-04-20T07:09:49.615Z,35.6
2019-04-20T07:12:33.340Z,35.3
2019-04-20T07:15:29.235Z,34.9
2019-04-20T07:21:56.234Z,32.4
2019-04-20T07:24:43.146Z,30.9
2019-04-20T07:27:34.950Z,29.8
2019-04-20T07:30:35.524Z,29.0
2019-04-20T07:36:37.826Z,29.0
2019-04-20T07:39:40.217Z,29.2
2019-04-20T07:45:33.182Z,28.7
2019-04-20T07:48:29.575Z,28.6
2019-04-20T07:51:23.137Z,28.5
2019-04-20T07:57:31.056Z,28.6
2019-04-20T08:00:44.248Z,28.7
2019-04-20T08:03:38.112Z,29.1
2019-04-20T08:06:22.057Z,29.7
2019-04-20T08:09:28.085Z,30.5
2019-04-20T08:12:42.039Z,30.6
2019-04-20T08:15:42.956Z,30.8
2019-04-20T08:18:41.280Z,30.3
2019-04-20T08:21:35.223Z,30.5
2019-04-20T08:24:32.766Z,31.2
2019-04-20T08:27:16.616Z,31.9
2019-04-20T08:30:33.851Z,32.6
2019-04-20T08:33:30.926Z,33.4
2019-04-20T08:36:41.217Z,34.0
2019-04-20T08:39:45.423Z,34.9
2019-04-20T08:42:29.875Z,34.4
2019-04-20T08:48:28.683Z,35.1
2019-04-20T08:51:31.714Z,35.2
2019-04-20T08:54:26.438Z,35.2
2019-04-20T08:57:15.816Z,35.5
2019-04-20T09:00:18.309Z,35.4
2019-04-20T09:03:20.159Z,35.9
2019-04-20T09:06:32.277Z,35.9
2019-04-20T09:09:44.580Z,36.7
2019-04-20T09:12:31.930Z,37.0
2019-04-20T09:15:16.731Z,37.7
2019-04-20T09:18:24.185Z,37.5
2019-04-20T09:21:24.334Z,36.8
2019-04-20T09:24:36.186Z,36.8
2019-04-20T09:27:27.001Z,36.2
2019-04-20T09:30:30.592Z,36.2
2019-04-20T09:33:33.715Z,37.2
2019-04-20T09:36:27.641Z,37.3
2019-04-20T09:39:21.421Z,36.8
2019-04-20T09:42:15.958Z,36.8
2019-04-20T09:45:23.199Z,37.4
2019-04-20T09:48:23.229Z,37.8
2019-04-20T09:51:30.683Z,38.3
2019-04-20T09:54:27.101Z,38.3
2019-04-20T09:57:33.931Z,39.0
2019-04-20T10:00:29.116Z,38.6
2019-04-20T10:03:16.503Z,37.7
2019-04-20T10:06:17.951Z,37.6
2019-04-20T10:09:19.432Z,38.1
2019-04-20T10:12:15.835Z,39.3
2019-04-20T10:15:19.924Z,39.7
2019-04-20T10:18:15.314Z,40.1
2019-04-20T10:21:15.902Z,41.0
2019-04-20T10:24:16.696Z,40.9
2019-04-20T10:27:16.700Z,39.9
2019-04-20T10:30:16.601Z,39.6
2019-04-20T10:33:15.531Z,39.7
2019-04-20T10:36:15.438Z,39.6
2019-04-20T10:39:16.383Z,39.4
2019-04-20T10:42:16.364Z,39.7
2019-04-20T10:45:17.036Z,39.6
2019-04-20T10:48:15.592Z,38.6
2019-04-20T10:51:17.648Z,38.8
2019-04-20T10:54:16.373Z,38.8
2019-04-20T10:57:17.355Z,39.0
2019-04-20T11:00:15.920Z,39.0
2019-04-20T11:03:15.862Z,39.2
2019-04-20T11:06:16.467Z,39.7
2019-04-20T11:09:16.535Z,39.2
2019-04-20T11:12:16.624Z,38.4
2019-04-20T11:15:16.573Z,37.9
2019-04-20T11:18:17.661Z,37.6
2019-04-20T11:21:17.394Z,36.8
2019-04-20T11:24:16.418Z,37.4
2019-04-20T11:27:16.347Z,37.7
2019-04-20T11:30:16.285Z,38.2
2019-04-20T11:33:16.154Z,38.1
2019-04-20T11:36:17.103Z,37.5
2019-04-20T11:39:16.833Z,36.7
2019-04-20T11:42:15.625Z,35.9
2019-04-20T11:45:16.152Z,34.6
2019-04-20T11:48:16.146Z,33.5
2019-04-20T11:51:15.831Z,32.5
2019-04-20T11:54:16.345Z,31.9
2019-04-20T11:57:15.422Z,31.4
2019-04-20T12:00:17.165Z,30.9
2019-04-20T12:03:23.703Z,30.7
2019-04-20T12:06:15.371Z,30.5
2019-04-20T12:09:15.145Z,30.4
2019-04-20T12:12:24.346Z,30.3
2019-04-20T12:15:15.230Z,30.3
2019-04-20T12:18:15.819Z,30.2
2019-04-20T12:21:15.193Z,30.0
2019-04-20T12:24:16.403Z,30.0
2019-04-20T12:27:16.668Z,30.0
2019-04-20T12:30:15.495Z,30.1
2019-04-20T12:33:15.837Z,29.9
2019-04-20T12:36:16.315Z,29.6
2019-04-20T12:39:15.574Z,29.5
2019-04-20T12:42:16.907Z,29.3
2019-04-20T12:45:15.750Z,29.3
2019-04-20T12:48:15.622Z,29.3
2019-04-20T12:51:15.915Z,29.2
2019-04-20T12:54:16.589Z,29.5
2019-04-20T12:57:16.556Z,29.6
2019-04-20T13:00:15.578Z,29.7
2019-04-20T13:03:15.314Z,29.7
2019-04-20T13:06:16.257Z,29.2
2019-04-20T13:09:16.753Z,29.0
2019-04-20T13:12:15.539Z,28.9
2019-04-20T13:15:16.099Z,28.9
2019-04-20T13:18:15.232Z,28.9
2019-04-20T13:21:16.752Z,29.0
2019-04-20T13:24:15.089Z,29.1
2019-04-20T13:27:16.743Z,29.3
2019-04-20T13:30:16.582Z,29.4
2019-04-20T13:33:15.666Z,29.5
2019-04-20T13:36:16.505Z,29.7
2019-04-20T13:39:16.194Z,29.8
2019-04-20T13:42:19.097Z,29.6
2019-04-20T13:45:17.016Z,29.5
2019-04-20T13:48:16.917Z,29.4
2019-04-20T13:51:16.763Z,29.4
2019-04-20T13:54:18.872Z,29.4
2019-04-20T13:57:15.615Z,29.2
2019-04-20T14:00:15.857Z,29.1
2019-04-20T14:03:16.378Z,29.1
2019-04-20T14:06:16.596Z,29.2
2019-04-20T14:09:15.362Z,29.2
2019-04-20T14:12:22.532Z,29.3
2019-04-20T14:15:15.766Z,29.2
2019-04-20T14:18:15.637Z,29.0
2019-04-20T14:21:16.353Z,28.8
2019-04-20T14:24:17.100Z,28.7
2019-04-20T14:27:15.481Z,28.4
2019-04-20T14:30:15.510Z,28.4
2019-04-20T14:33:16.676Z,28.4
2019-04-20T14:36:15.324Z,28.4
2019-04-20T14:39:16.169Z,28.4
2019-04-20T14:42:29.258Z,28.3
2019-04-20T14:45:16.361Z,28.3
2019-04-20T14:48:16.399Z,28.2
2019-04-20T14:51:15.765Z,28.2
2019-04-20T14:54:15.413Z,28.2
2019-04-20T14:57:15.259Z,28.1
2019-04-20T15:00:15.413Z,28.1
2019-04-20T15:03:16.211Z,28.1
2019-04-20T15:06:15.763Z,28.0
2019-04-20T15:09:16.901Z,27.8
2019-04-20T15:12:15.154Z,27.7
2019-04-20T15:15:16.710Z,27.7
2019-04-20T15:18:15.548Z,27.7
2019-04-20T15:21:15.456Z,27.6
2019-04-20T15:24:15.991Z,27.6
2019-04-20T15:27:16.256Z,27.5
2019-04-20T15:30:16.257Z,27.3
2019-04-20T15:33:16.873Z,27.2
2019-04-20T15:36:15.939Z,27.1
2019-04-20T15:39:15.186Z,27.0
2019-04-20T15:42:15.185Z,27.0
2019-04-20T15:45:15.679Z,26.9
2019-04-20T15:48:16.330Z,26.9
2019-04-20T15:51:17.151Z,26.9
2019-04-20T15:54:15.776Z,26.8
2019-04-20T15:57:19.645Z,26.7
2019-04-20T16:00:16.214Z,26.6
2019-04-20T16:03:15.497Z,26.6
2019-04-20T16:06:16.942Z,26.6
2019-04-20T16:09:15.684Z,26.5
2019-04-20T16:12:15.367Z,26.5
2019-04-20T16:15:15.780Z,26.4
2019-04-20T16:18:15.152Z,26.4
2019-04-20T16:21:21.920Z,26.4
2019-04-20T16:24:16.892Z,26.4
2019-04-20T16:27:15.721Z,26.3
2019-04-20T16:30:15.764Z,26.2
2019-04-20T16:33:15.090Z,26.2
2019-04-20T16:36:16.434Z,26.1
2019-04-20T16:39:16.397Z,26.0
2019-04-20T16:42:16.203Z,26.0
2019-04-20T16:45:17.060Z,25.9
2019-04-20T16:48:16.001Z,25.9
2019-04-20T16:51:15.102Z,25.9
2019-04-20T16:54:15.753Z,25.8
2019-04-20T16:57:17.067Z,25.8
2019-04-20T17:00:15.629Z,25.8
2019-04-20T17:03:15.352Z,25.7
2019-04-20T17:06:15.969Z,25.7
2019-04-20T17:09:15.773Z,25.6
2019-04-20T17:12:15.939Z,25.6
2019-04-20T17:15:15.837Z,25.5
2019-04-20T17:18:15.892Z,25.5
2019-04-20T17:21:22.787Z,25.4
2019-04-20T17:24:15.577Z,25.3
2019-04-20T17:27:17.018Z,25.3
2019-04-20T17:30:19.531Z,25.2
2019-04-20T17:33:16.004Z,25.1
2019-04-20T17:36:22.773Z,25.1
2019-04-20T17:39:26.105Z,25.0
2019-04-20T17:42:30.698Z,24.9
2019-04-20T17:45:28.768Z,24.9
2019-04-20T17:48:28.014Z,24.8
2019-04-20T17:51:27.754Z,24.7
2019-04-20T17:54:16.022Z,24.7
2019-04-20T17:57:15.543Z,24.6
2019-04-20T18:00:17.280Z,24.5
2019-04-20T18:03:50.974Z,24.4
2019-04-20T18:06:31.586Z,24.3
2019-04-20T18:09:38.630Z,24.2
2019-04-20T18:12:25.791Z,24.1
2019-04-20T18:15:29.475Z,24.0
2019-04-20T18:18:28.323Z,23.9
2019-04-20T18:21:15.162Z,23.8
2019-04-20T18:24:31.534Z,23.7
2019-04-20T18:30:27.170Z,23.5
2019-04-20T18:33:18.836Z,23.5
2019-04-20T18:36:23.351Z,23.4
2019-04-20T18:39:18.088Z,23.3
2019-04-20T18:42:23.407Z,23.2
2019-04-20T18:45:29.591Z,23.1
2019-04-20T18:48:37.863Z,23.0
2019-04-20T18:51:15.512Z,23.0
2019-04-20T18:54:21.295Z,22.9
2019-04-20T18:57:19.640Z,22.8
2019-04-20T19:00:22.983Z,22.8
2019-04-20T19:03:25.246Z,22.7
2019-04-20T19:06:16.081Z,22.6
2019-04-20T19:09:21.498Z,22.5
2019-04-20T19:12:16.544Z,22.4
2019-04-20T19:15:37.322Z,22.3
2019-04-20T19:18:25.956Z,22.3
2019-04-20T19:21:15.690Z,22.2
2019-04-20T19:24:18.479Z,22.1
2019-04-20T19:27:17.315Z,22.0
2019-04-20T19:30:28.366Z,21.9
2019-04-20T19:33:31.040Z,21.8
2019-04-20T19:36:27.820Z,21.8
2019-04-20T19:39:30.328Z,21.7
2019-04-20T19:42:31.076Z,21.6
2019-04-20T19:45:34.569Z,21.6
2019-04-20T19:48:24.064Z,21.5
2019-04-20T19:51:32.972Z,21.4
2019-04-20T19:54:34.507Z,21.4
2019-04-20T19:57:31.058Z,21.3
2019-04-20T20:00:16.624Z,21.3
2019-04-20T20:03:15.478Z,21.2
2019-04-20T20:06:24.392Z,21.1
2019-04-20T20:09:17.817Z,21.1
2019-04-20T20:12:17.900Z,21.0
2019-04-20T20:15:23.731Z,20.9
2019-04-20T20:21:31.558Z,20.8
2019-04-20T20:24:17.412Z,20.7
2019-04-20T20:30:24.469Z,20.6
2019-04-20T20:33:27.931Z,20.5
2019-04-20T20:36:20.229Z,20.5
2019-04-20T20:39:21.356Z,20.4
2019-04-20T20:42:28.343Z,20.3
2019-04-20T20:45:27.257Z,20.3
2019-04-20T20:48:34.017Z,20.3
2019-04-20T20:51:39.129Z,20.3
2019-04-20T20:57:20.661Z,20.3
2019-04-20T21:00:29.416Z,20.3
2019-04-20T21:03:22.525Z,20.3
2019-04-20T21:06:18.859Z,20.2
2019-04-20T21:09:16.647Z,20.2
2019-04-20T21:12:18.063Z,20.2
2019-04-20T21:15:20.975Z,20.2
2019-04-20T21:18:33.268Z,20.1
2019-04-20T21:21:21.879Z,20.1
2019-04-20T21:24:17.670Z,20.0
2019-04-20T21:27:18.213Z,20.0
2019-04-20T21:30:18.322Z,19.9
2019-04-20T21:33:16.781Z,19.9
2019-04-20T21:36:19.175Z,19.9
2019-04-20T21:39:26.253Z,19.8
2019-04-20T21:42:19.258Z,19.8
2019-04-20T21:45:23.055Z,19.8
2019-04-20T21:48:35.029Z,19.7
2019-04-20T21:51:29.303Z,19.7
2019-04-20T21:54:16.087Z,19.7
2019-04-20T21:57:16.524Z,19.6
2019-04-20T22:00:24.967Z,19.6
2019-04-20T22:03:16.918Z,19.6
2019-04-20T22:06:16.265Z,19.5
2019-04-20T22:09:15.310Z,19.5
2019-04-20T22:12:15.980Z,19.5
2019-04-20T22:15:19.756Z,19.4
2019-04-20T22:18:20.085Z,19.4
2019-04-20T22:21:24.804Z,19.3
2019-04-20T22:24:34.243Z,19.3
2019-04-20T22:27:21.086Z,19.3
2019-04-20T22:30:15.475Z,19.2
2019-04-20T22:33:16.621Z,19.2
2019-04-20T22:36:16.430Z,19.2
2019-04-20T22:39:15.752Z,19.1
2019-04-20T22:42:16.145Z,19.1
2019-04-20T22:45:16.997Z,19.1
2019-04-20T22:48:17.655Z,19.0
2019-04-20T22:54:34.573Z,18.9
2019-04-20T22:57:31.798Z,18.9
2019-04-20T23:00:23.638Z,18.9
2019-04-20T23:03:16.801Z,18.9
2019-04-20T23:06:16.587Z,18.9
2019-04-20T23:09:16.873Z,18.9
2019-04-20T23:12:20.718Z,18.9
2019-04-20T23:15:16.301Z,18.9
2019-04-20T23:18:15.994Z,18.8
2019-04-20T23:21:17.425Z,18.8
2019-04-20T23:24:16.781Z,18.8
2019-04-20T23:27:21.967Z,18.7
2019-04-20T23:30:22.711Z,18.7
2019-04-20T23:33:16.021Z,18.7
2019-04-20T23:36:19.318Z,18.7
2019-04-20T23:39:17.009Z,18.6
2019-04-20T23:42:16.083Z,18.6
2019-04-20T23:45:16.845Z,18.6
2019-04-20T23:48:16.199Z,18.6
2019-04-20T23:51:36.945Z,18.6
2019-04-20T23:54:22.022Z,18.5
2019-04-20T23:57:15.650Z,18.5
